KHMN/HMN METAR and TAF weather

Enter ICAO airport designator
Station Type Date Time Source
KHMN METAR 2021/07/26 12:56 UTC NOAA

KHMN 261256Z AUTO 04005KT 10SM SCT140 20/16 A3015 RMK AO2 SLP151 T01980158 $


Station Type Date Time Source
KHMN Decoded METAR 2021/07/26 12:56 UTC NOAA

Holloman Air Force Base, NM, United States (KHMN) 32-51N 106-06W 1248M
Jul 26, 2021 - 08:56 AM EDT / 2021.07.26 1256 UTC
Wind: from the NE (040 degrees) at 6 MPH (5 KT):0
Visibility: 10 mile(s):0
Sky conditions: partly cloudy
Temperature: 67.6 F (19.8 C)
Dew Point: 60.4 F (15.8 C)
Relative Humidity: 77%
Pressure (altimeter): 30.15 in. Hg (1020 hPa)
ob: KHMN 261256Z AUTO 04005KT 10SM SCT140 20/16 A3015 RMK AO2 SLP151 T01980158
cycle: 13

Station Type Date Time Source
KHMN TAF 2021/07/25 17:12 UTC NOAA

TAF
AMD KHMN 251710Z 2517/2615 VRB06KT 9999 FEW100 SCT150 QNH3015INS
BECMG 2518/2519 16010G15KT 9999 SCT080 BKN150 QNH3003INS TS OMTNS
BECMG 2605/2606 VRB06KT 9999 SCT200 QNH3011INS TX33/2522Z TN23/2513Z LAST NO
AMDS AFT 2517 NEXT 2609

Example: see airport list